| time (UTC) | temp C | wind direction | speed KPH | gust KPH | rain 1hr cm | rain 24hr cm | rain mn cm | humidity % | barometer mb |
| 20260510071528 | 17 | 127 | 0.0 | 1.6 | 0.00 | 0.00 | 0.00 | 88 | 1013.1 |
| 20260510070030 | 17 | 0 | 0.0 | 0.0 | 0.00 | 0.00 | 0.00 | 87 | 1013.4 |
| 20260510064533 | 17 | 0 | 0.0 | 0.0 | 0.00 | 0.00 | 0.00 | 87 | 1013.1 |
| 20260510063028 | 17 | 0 | 0.0 | 0.0 | 0.00 | 0.00 | 0.00 | 86 | 1013.2 |
| 20260510061530 | 18 | 0 | 0.0 | 0.0 | 0.00 | 0.00 | 0.00 | 86 | 1013.5 |
| 20260510060028 | 18 | 0 | 0.0 | 0.0 | 0.00 | 0.00 | 0.00 | 85 | 1013.4 |
| 20260510054531 | 18 | 0 | 0.0 | 0.0 | 0.00 | 0.00 | 0.00 | 84 | 1013.3 |
| 20260510053029 | 18 | 0 | 0.0 | 0.0 | 0.00 | 0.00 | 0.00 | 83 | 1013.2 |
| 20260510051528 | 18 | 0 | 0.0 | 1.6 | 0.00 | 0.00 | 0.00 | 83 | 1013.0 |
| 20260510050029 | 19 | 0 | 0.0 | 0.0 | 0.00 | 0.00 | 0.00 | 82 | 1012.9 |
| 20260510044534 | 19 | 0 | 0.0 | 0.0 | 0.00 | 0.00 | 0.00 | 81 | 1012.7 |
| 20260510043028 | 18 | 0 | 0.0 | 0.0 | 0.00 | 0.00 | 0.00 | 80 | 1012.9 |
| 20260510041529 | 18 | 0 | 0.0 | 1.6 | 0.00 | 0.00 | 0.00 | 80 | 1012.7 |
| 20260510040028 | 18 | 134 | 0.0 | 0.0 | 0.00 | 0.00 | 0.00 | 80 | 1012.7 |
| 20260510034528 | 18 | 0 | 0.0 | 0.0 | 0.00 | 0.00 | 0.00 | 79 | 1012.7 |
| 20260510033030 | 19 | 0 | 0.0 | 0.0 | 0.00 | 0.00 | 0.00 | 79 | 1012.5 |
| 20260510031532 | 19 | 0 | 0.0 | 0.0 | 0.00 | 0.00 | 0.00 | 78 | 1012.2 |
| 20260510030037 | 19 | 0 | 0.0 | 0.0 | 0.00 | 0.00 | 0.00 | 74 | 1012.1 |
| 20260510024528 | 20 | 0 | 0.0 | 0.0 | 0.00 | 0.00 | 0.00 | 73 | 1011.9 |
| 20260510023028 | 20 | 0 | 0.0 | 0.0 | 0.00 | 0.00 | 0.00 | 75 | 1011.9 |
| 20260510021533 | 20 | 134 | 1.6 | 1.6 | 0.00 | 0.00 | 0.00 | 75 | 1011.7 |
| 20260510020030 | 21 | 0 | 0.0 | 0.0 | 0.00 | 0.00 | 0.00 | 72 | 1011.5 |
| 20260510014529 | 21 | 0 | 0.0 | 0.0 | 0.00 | 0.00 | 0.00 | 71 | 1011.3 |
| 20260510013030 | 21 | 0 | 0.0 | 0.0 | 0.00 | 0.00 | 0.00 | 69 | 1011.2 |
| 20260510011530 | 22 | 174 | 0.0 | 1.6 | 0.00 | 0.00 | 0.00 | 67 | 1011.1 |
| 20260510010029 | 23 | 0 | 0.0 | 1.6 | 0.00 | 0.00 | 0.00 | 65 | 1011.2 |
| 20260510004528 | 24 | 0 | 0.0 | 1.6 | 0.00 | 0.00 | 0.00 | 61 | 1010.9 |
| 20260510003028 | 26 | 0 | 0.0 | 1.6 | 0.00 | 0.00 | 0.00 | 57 | 1010.6 |
| 20260510001528 | 26 | 0 | 1.6 | 6.4 | 0.00 | 0.00 | 0.00 | 56 | 1010.6 |
| 20260510000028 | 27 | 121 | 1.6 | 4.8 | 0.00 | 0.00 | 0.00 | 55 | 1010.4 |
| 20260509234528 | 27 | 139 | 0.0 | 6.4 | 0.00 | 0.00 | 0.00 | 57 | 1010.2 |
| 20260509233030 | 27 | 193 | 1.6 | 9.7 | 0.00 | 0.00 | 0.00 | 56 | 1010.0 |
| 20260509231530 | 27 | 105 | 1.6 | 8.0 | 0.00 | 0.00 | 0.00 | 55 | 1010.2 |
| 20260509230028 | 27 | 131 | 3.2 | 9.7 | 0.00 | 0.00 | 0.00 | 54 | 1010.2 |
| 20260509224532 | 27 | 151 | 1.6 | 9.7 | 0.00 | 0.00 | 0.00 | 58 | 1010.0 |
| 20260509223030 | 28 | 122 | 3.2 | 14.5 | 0.00 | 0.00 | 0.00 | 52 | 1009.9 |
| 20260509221531 | 28 | 140 | 1.6 | 11.3 | 0.00 | 0.00 | 0.00 | 53 | 1009.6 |
| 20260509220030 | 28 | 122 | 0.0 | 4.8 | 0.00 | 0.00 | 0.00 | 54 | 1009.7 |
| 20260509214532 | 27 | 131 | 4.8 | 12.9 | 0.00 | 0.00 | 0.00 | 57 | 1009.7 |
| 20260509213028 | 28 | 118 | 3.2 | 8.0 | 0.00 | 0.00 | 0.00 | 54 | 1009.6 |
| 20260509211537 | 28 | 110 | 3.2 | 9.7 | 0.00 | 0.00 | 0.00 | 51 | 1009.9 |
| 20260509210031 | 28 | 110 | 1.6 | 8.0 | 0.00 | 0.00 | 0.00 | 49 | 1009.9 |
| 20260509204530 | 27 | 145 | 0.0 | 1.6 | 0.00 | 0.00 | 0.00 | 57 | 1010.1 |
| 20260509203031 | 27 | 0 | 0.0 | 12.9 | 0.00 | 0.00 | 0.00 | 56 | 1010.1 |
| 20260509201530 | 28 | 239 | 0.0 | 6.4 | 0.00 | 0.00 | 0.00 | 49 | 1010.6 |
| 20260509200027 | 27 | 150 | 0.0 | 4.8 | 0.00 | 0.00 | 0.00 | 54 | 1010.7 |
| 20260509194530 | 27 | 98 | 3.2 | 11.3 | 0.00 | 0.00 | 0.00 | 49 | 1010.8 |
| 20260509193032 | 28 | 82 | 4.8 | 11.3 | 0.00 | 0.00 | 0.00 | 46 | 1010.7 |
| 20260509191532 | 27 | 326 | 3.2 | 8.0 | 0.00 | 0.00 | 0.00 | 49 | 1010.7 |
| 20260509190029 | 27 | 120 | 6.4 | 11.3 | 0.00 | 0.00 | 0.00 | 51 | 1010.8 |
| 20260509184533 | 28 | 118 | 0.0 | 3.2 | 0.00 | 0.00 | 0.00 | 50 | 1010.9 |
| 20260509183030 | 27 | 175 | 3.2 | 8.0 | 0.00 | 0.00 | 0.00 | 54 | 1011.1 |
| 20260509181531 | 27 | 304 | 4.8 | 9.7 | 0.00 | 0.00 | 0.00 | 52 | 1011.1 |
| 20260509180028 | 27 | 331 | 1.6 | 12.9 | 0.00 | 0.00 | 0.00 | 55 | 1011.2 |
| 20260509174528 | 26 | 269 | 1.6 | 8.0 | 0.00 | 0.00 | 0.00 | 57 | 1011.4 |
| 20260509173027 | 26 | 83 | 3.2 | 9.7 | 0.00 | 0.00 | 0.00 | 57 | 1011.5 |
| 20260509171533 | 25 | 76 | 3.2 | 8.0 | 0.00 | 0.00 | 0.00 | 63 | 1011.6 |
| 20260509170029 | 25 | 145 | 1.6 | 6.4 | 0.00 | 0.00 | 0.00 | 67 | 1011.6 |
| 20260509164530 | 25 | 352 | 4.8 | 9.7 | 0.00 | 0.00 | 0.00 | 63 | 1011.4 |
| 20260509163029 | 24 | 95 | 4.8 | 9.7 | 0.00 | 0.00 | 0.00 | 66 | 1011.5 |
| 20260509161530 | 23 | 288 | 3.2 | 11.3 | 0.00 | 0.00 | 0.00 | 67 | 1011.5 |
| 20260509160028 | 24 | 104 | 3.2 | 14.5 | 0.00 | 0.00 | 0.00 | 67 | 1011.5 |
| 20260509154530 | 24 | 94 | 1.6 | 8.0 | 0.00 | 0.00 | 0.00 | 67 | 1011.5 |
| 20260509153030 | 23 | 356 | 4.8 | 9.7 | 0.00 | 0.00 | 0.00 | 69 | 1011.5 |
| 20260509151530 | 22 | 316 | 3.2 | 9.7 | 0.00 | 0.00 | 0.00 | 69 | 1011.4 |
| 20260509150027 | 22 | 318 | 4.8 | 8.0 | 0.00 | 0.00 | 0.00 | 68 | 1011.3 |
| 20260509144534 | 22 | 330 | 0.0 | 4.8 | 0.00 | 0.00 | 0.00 | 70 | 1011.4 |
| 20260509143028 | 22 | 315 | 3.2 | 8.0 | 0.00 | 0.00 | 0.00 | 70 | 1011.8 |
| 20260509141531 | 21 | 0 | 1.6 | 4.8 | 0.00 | 0.00 | 0.00 | 71 | 1011.8 |
| 20260509140029 | 22 | 328 | 1.6 | 4.8 | 0.00 | 0.00 | 0.00 | 70 | 1011.8 |
| 20260509134530 | 21 | 0 | 0.0 | 1.6 | 0.00 | 0.00 | 0.00 | 75 | 1011.8 |
| 20260509133029 | 21 | 0 | 0.0 | 1.6 | 0.00 | 0.00 | 0.00 | 76 | 1011.8 |
| 20260509131528 | 21 | 0 | 0.0 | 0.0 | 0.00 | 0.00 | 0.00 | 77 | 1011.7 |
| 20260509130048 | 20 | 0 | 0.0 | 0.0 | 0.00 | 0.00 | 0.00 | 76 | 1011.5 |
| 20260509124531 | 20 | 0 | 0.0 | 0.0 | 0.00 | 0.00 | 0.00 | 78 | 1011.5 |
| 20260509123030 | 18 | 0 | 0.0 | 0.0 | 0.00 | 0.00 | 0.00 | 83 | 1011.6 |
| 20260509121530 | 16 | 0 | 0.0 | 0.0 | 0.00 | 0.00 | 0.00 | 89 | 1011.5 |
| 20260509120033 | 15 | 0 | 0.0 | 0.0 | 0.00 | 0.00 | 0.00 | 90 | 1011.1 |
| 20260509114530 | 14 | 0 | 0.0 | 0.0 | 0.00 | 0.00 | 0.00 | 92 | 1010.9 |
| 20260509113030 | 13 | 0 | 0.0 | 0.0 | 0.00 | 0.00 | 0.00 | 90 | 1010.8 |
| 20260509111531 | 13 | 0 | 0.0 | 0.0 | 0.00 | 0.00 | 0.00 | 90 | 1010.6 |
| 20260509110029 | 13 | 0 | 0.0 | 0.0 | 0.00 | 0.00 | 0.00 | 90 | 1010.3 |
| 20260509104527 | 13 | 0 | 0.0 | 0.0 | 0.00 | 0.00 | 0.00 | 89 | 1010.1 |
| 20260509103029 | 14 | 0 | 0.0 | 0.0 | 0.00 | 0.00 | 0.00 | 89 | 1010.0 |
| 20260509101534 | 14 | 0 | 0.0 | 0.0 | 0.00 | 0.00 | 0.00 | 88 | 1009.9 |
| 20260509100034 | 15 | 0 | 0.0 | 1.6 | 0.00 | 0.00 | 0.00 | 88 | 1009.9 |
| 20260509094531 | 15 | 0 | 0.0 | 1.6 | 0.00 | 0.00 | 0.00 | 88 | 1009.7 |
| 20260509093027 | 15 | 345 | 0.0 | 1.6 | 0.00 | 0.00 | 0.00 | 87 | 1010.0 |
| 20260509091530 | 15 | 0 | 0.0 | 1.6 | 0.00 | 0.00 | 0.00 | 85 | 1010.2 |
| 20260509090030 | 16 | 0 | 0.0 | 0.0 | 0.00 | 0.00 | 0.00 | 84 | 1010.1 |
| 20260509084536 | 16 | 0 | 0.0 | 0.0 | 0.00 | 0.00 | 0.00 | 82 | 1009.7 |
| 20260509083037 | 17 | 0 | 0.0 | 3.2 | 0.00 | 0.00 | 0.00 | 81 | 1009.7 |
| 20260509081535 | 17 | 0 | 0.0 | 0.0 | 0.00 | 0.00 | 0.00 | 81 | 1009.8 |
| 20260509080035 | 17 | 0 | 0.0 | 1.6 | 0.00 | 0.00 | 0.00 | 80 | 1010.2 |
| 20260509074530 | 17 | 0 | 0.0 | 0.0 | 0.00 | 0.00 | 0.00 | 79 | 1010.0 |
| 20260509073029 | 18 | 0 | 0.0 | 0.0 | 0.00 | 0.00 | 0.00 | 76 | 1010.1 |